createdAt,value
2023-08-14T01:00:22.096Z,13.8
2023-08-14T01:10:22.293Z,13.8
2023-08-14T01:20:22.500Z,13.7
2023-08-14T01:40:22.897Z,13.7
2023-08-14T02:00:23.271Z,13.7
2023-08-14T02:10:23.473Z,13.4
2023-08-14T02:20:23.672Z,13.2
2023-08-14T02:40:24.066Z,13.1
2023-08-14T02:50:24.295Z,13.1
2023-08-14T03:00:24.465Z,13.1
2023-08-14T03:10:24.674Z,13
2023-08-14T03:20:24.866Z,13
2023-08-14T03:30:25.048Z,12.8
2023-08-14T03:40:25.258Z,12.8
2023-08-14T03:50:25.458Z,12.7
2023-08-14T04:00:25.685Z,12.6
2023-08-14T04:10:25.845Z,12.6
2023-08-14T04:20:26.035Z,12.7
2023-08-14T04:30:26.239Z,12.6
2023-08-14T04:40:26.426Z,12.6
2023-08-14T04:50:26.629Z,12.7
2023-08-14T05:00:26.851Z,13
2023-08-14T05:10:27.031Z,13.1
2023-08-14T05:30:27.405Z,13.7
2023-08-14T05:40:27.618Z,14.1
2023-08-14T05:50:27.839Z,14.5
2023-08-14T06:00:27.987Z,15
2023-08-14T06:10:28.190Z,15.3
2023-08-14T06:30:28.586Z,16.2
2023-08-14T06:40:28.783Z,16.6
2023-08-14T06:50:28.982Z,17
2023-08-14T07:00:29.190Z,17.2
2023-08-14T07:10:29.366Z,17.4
2023-08-14T07:20:29.564Z,17.5
2023-08-14T07:40:29.956Z,17.7
2023-08-14T07:50:30.201Z,17.8
2023-08-14T08:00:30.346Z,17.9
2023-08-14T08:30:30.911Z,19.8
2023-08-14T08:40:31.089Z,21.3
2023-08-14T08:50:31.299Z,21.7
2023-08-14T09:40:32.272Z,24
2023-08-14T09:50:32.467Z,24.2
2023-08-14T10:00:32.700Z,24.6
2023-08-14T10:10:32.854Z,24.6
2023-08-14T10:20:33.040Z,24.7
2023-08-14T10:30:33.274Z,25.3
2023-08-14T10:40:33.418Z,25.3
2023-08-14T11:00:33.812Z,25.9
2023-08-14T11:10:34.007Z,26
2023-08-14T11:20:34.186Z,26.1
2023-08-14T11:30:34.385Z,26.3
2023-08-14T11:40:34.568Z,26.4
2023-08-14T11:50:34.769Z,26.5
2023-08-14T12:00:34.985Z,27.1
2023-08-14T12:10:35.171Z,27.1
2023-08-14T12:20:35.407Z,26.6
2023-08-14T12:30:35.542Z,26.9
2023-08-14T12:40:35.743Z,27.1
2023-08-14T12:50:35.959Z,27.1
2023-08-14T13:00:36.099Z,27.4
2023-08-14T13:10:36.300Z,27.4
2023-08-14T13:20:36.506Z,27.4
2023-08-14T13:30:36.778Z,27.5
2023-08-14T13:40:36.899Z,27.4
2023-08-14T13:50:37.056Z,27.6
2023-08-14T14:00:37.264Z,28.2
2023-08-14T14:10:37.639Z,28.2
2023-08-14T14:20:37.642Z,27.9
2023-08-14T14:30:37.835Z,28.2
2023-08-14T14:40:38.021Z,28.4
2023-08-14T14:50:38.233Z,28.2
2023-08-14T15:00:38.418Z,28.2
2023-08-14T15:10:38.610Z,28.2
2023-08-14T15:20:38.787Z,28
2023-08-14T15:30:39.055Z,27.7
2023-08-14T15:40:39.192Z,27.2
2023-08-14T15:50:39.363Z,27.2
2023-08-14T16:00:39.588Z,26.7
2023-08-14T16:10:39.771Z,26.5
2023-08-14T16:20:39.958Z,26.4
2023-08-14T16:30:40.158Z,26.4
2023-08-14T16:40:40.334Z,26.4
2023-08-14T16:50:40.536Z,26.1
2023-08-14T17:00:40.735Z,26.1
2023-08-14T17:10:40.904Z,25.9
2023-08-14T17:20:41.086Z,25.8
2023-08-14T17:30:41.287Z,25.7
2023-08-14T17:50:41.690Z,25.4
2023-08-14T18:00:41.930Z,25.3
2023-08-14T18:10:42.055Z,25.2
2023-08-14T18:20:42.255Z,25
2023-08-14T18:30:42.449Z,24.9
2023-08-14T18:40:42.640Z,24.8
2023-08-14T19:20:43.435Z,24.1
2023-08-14T19:30:45.146Z,23.6
2023-08-14T19:40:43.788Z,23.4
2023-08-14T19:50:43.983Z,23.2
2023-08-14T20:00:44.212Z,23.1
2023-08-14T20:40:44.953Z,22.7
2023-08-14T20:50:45.151Z,22.9
2023-08-14T21:00:45.359Z,23
2023-08-14T21:30:46.000Z,23.2
2023-08-14T22:00:46.496Z,23
2023-08-14T22:10:46.680Z,22.9
2023-08-14T22:30:47.066Z,22.7
2023-08-14T22:40:47.250Z,22.5
2023-08-14T22:50:47.465Z,22.4
2023-08-14T23:10:47.827Z,22
2023-08-14T23:20:48.035Z,21.8
2023-08-14T23:30:48.217Z,21.7
2023-08-14T23:40:48.420Z,21.4
2023-08-14T23:50:48.610Z,20.8
